createdAt,value
2023-10-20T00:01:42.871Z,95985.25
2023-10-20T00:04:09.328Z,95978.91
2023-10-20T00:06:35.839Z,95984.88
2023-10-20T00:09:02.218Z,95977.84
2023-10-20T00:11:28.888Z,95986.94
2023-10-20T00:13:55.304Z,95980.22
2023-10-20T00:16:27.963Z,95974.31
2023-10-20T00:18:54.451Z,95975.84
2023-10-20T00:21:20.889Z,95969.09
2023-10-20T00:23:47.354Z,95966.31
2023-10-20T00:26:14.638Z,95961.63
2023-10-20T00:28:41.170Z,95961.63
2023-10-20T00:31:07.617Z,95951.38
2023-10-20T00:33:34.011Z,95963.25
2023-10-20T00:36:00.420Z,95956.06
2023-10-20T00:38:26.871Z,95958.00
2023-10-20T00:40:54.102Z,95955.28
2023-10-20T00:43:20.499Z,95943.84
2023-10-20T00:45:47.009Z,95943.47
2023-10-20T00:48:16.487Z,95933.16
2023-10-20T00:50:44.800Z,95934.75
2023-10-20T00:53:11.265Z,95930.00
2023-10-20T00:55:37.748Z,95938.81
2023-10-20T00:58:04.305Z,95941.53
2023-10-20T01:00:30.672Z,95944.69
2023-10-20T01:02:57.268Z,95941.13
2023-10-20T01:05:23.971Z,95956.13
2023-10-20T01:07:50.666Z,95950.22
2023-10-20T01:10:17.384Z,95945.50
2023-10-20T01:12:44.103Z,95940.34
2023-10-20T01:15:11.303Z,95945.50
2023-10-20T01:17:38.040Z,95942.00
2023-10-20T01:20:05.265Z,95934.50
2023-10-20T01:22:31.812Z,95924.22
2023-10-20T01:24:58.401Z,95926.19
2023-10-20T01:27:24.776Z,95938.09
2023-10-20T01:29:51.177Z,95940.44
2023-10-20T01:32:18.368Z,95942.41
2023-10-20T01:34:44.785Z,95944.00
2023-10-20T01:37:12.898Z,95938.16
2023-10-20T01:39:39.664Z,95927.88
2023-10-20T01:42:06.044Z,95917.59
2023-10-20T01:44:32.640Z,95915.63
2023-10-20T01:47:00.258Z,95906.16
2023-10-20T01:49:26.850Z,95900.22
2023-10-20T01:51:53.217Z,95899.44
2023-10-20T01:54:19.605Z,95899.91
2023-10-20T01:56:45.976Z,95892.78
2023-10-20T01:59:12.884Z,95876.25
2023-10-20T02:01:39.917Z,95873.09
2023-10-20T02:04:06.354Z,95869.13
2023-10-20T02:06:32.799Z,95874.63
2023-10-20T02:08:59.550Z,95875.00
2023-10-20T02:11:25.949Z,95863.56
2023-10-20T02:13:52.649Z,95873.16
2023-10-20T02:16:19.663Z,95864.09
2023-10-20T02:18:46.114Z,95864.09
2023-10-20T02:21:14.157Z,95872.00
2023-10-20T02:23:40.808Z,95867.25
2023-10-20T02:26:07.995Z,95867.69
2023-10-20T02:28:34.593Z,95855.41
2023-10-20T02:31:01.264Z,95852.69
2023-10-20T02:33:29.533Z,95855.47
2023-10-20T02:35:56.729Z,95852.72
2023-10-20T02:38:23.158Z,95857.84
2023-10-20T02:40:52.724Z,95864.16
2023-10-20T02:43:19.332Z,95856.25
2023-10-20T02:45:53.633Z,95843.66
2023-10-20T02:48:20.630Z,95840.50
2023-10-20T02:50:47.576Z,95840.06
2023-10-20T02:53:17.073Z,95846.03
2023-10-20T02:55:43.685Z,95851.56
2023-10-20T02:58:13.144Z,95864.22
2023-10-20T03:00:46.366Z,95844.88
2023-10-20T03:03:13.481Z,95842.53
2023-10-20T03:05:41.315Z,95848.44
2023-10-20T03:08:07.829Z,95846.84
2023-10-20T03:10:34.248Z,95841.31
2023-10-20T03:13:00.602Z,95840.91
2023-10-20T03:15:26.958Z,95835.38
2023-10-20T03:17:53.408Z,95836.97
2023-10-20T03:20:25.722Z,95844.88
2023-10-20T03:22:52.515Z,95827.09
2023-10-20T03:25:19.623Z,95834.63
2023-10-20T03:27:46.015Z,95831.84
2023-10-20T03:30:12.444Z,95827.94
2023-10-20T03:32:38.938Z,95818.03
2023-10-20T03:35:05.637Z,95826.31
2023-10-20T03:37:32.617Z,95829.50
2023-10-20T03:39:59.106Z,95831.09
2023-10-20T03:42:26.635Z,95830.66
2023-10-20T03:44:53.087Z,95831.09
2023-10-20T03:47:19.906Z,95826.75
2023-10-20T03:49:47.743Z,95830.31
2023-10-20T03:52:14.506Z,95831.50
2023-10-20T03:54:40.893Z,95821.63
2023-10-20T03:57:07.272Z,95812.94
2023-10-20T03:59:33.755Z,95795.97
2023-10-20T04:02:00.166Z,95784.91
2023-10-20T04:04:26.604Z,95781.38
2023-10-20T04:06:53.556Z,95769.16
2023-10-20T04:09:19.975Z,95762.47
2023-10-20T04:11:46.360Z,95759.31
2023-10-20T04:14:13.523Z,95766.41
2023-10-20T04:16:42.975Z,95767.59
2023-10-20T04:19:16.072Z,95759.31
2023-10-20T04:21:44.341Z,95758.53
2023-10-20T04:24:11.994Z,95747.47
2023-10-20T04:26:38.701Z,95726.16
2023-10-20T04:29:14.195Z,95722.66
2023-10-20T04:32:19.742Z,95723.00
2023-10-20T04:35:05.040Z,95728.94
2023-10-20T04:37:49.986Z,95736.47
2023-10-20T04:40:34.808Z,95747.91
2023-10-20T04:43:19.963Z,95739.63
2023-10-20T04:45:57.525Z,95741.97
2023-10-20T04:48:42.385Z,95738.03
2023-10-20T04:51:20.701Z,95732.50
2023-10-20T04:53:53.862Z,95725.03
2023-10-20T04:56:38.373Z,95725.41
2023-10-20T04:59:11.330Z,95727.78
2023-10-20T05:01:42.512Z,95729.75
2023-10-20T05:04:29.262Z,95711.22
2023-10-20T05:06:59.608Z,95682.81
2023-10-20T05:09:26.868Z,95690.72
2023-10-20T05:11:53.779Z,95673.78
2023-10-20T05:14:20.167Z,95683.25
2023-10-20T05:16:46.553Z,95688.38
2023-10-20T05:19:13.323Z,95691.13
2023-10-20T05:21:39.821Z,95675.38
2023-10-20T05:24:06.432Z,95689.16
2023-10-20T05:26:33.143Z,95678.88
2023-10-20T05:28:59.981Z,95676.16
2023-10-20T05:31:26.812Z,95678.53
2023-10-20T05:33:53.541Z,95679.66
2023-10-20T05:36:20.023Z,95676.50
2023-10-20T05:38:46.452Z,95682.03
2023-10-20T05:41:12.917Z,95675.31
2023-10-20T05:43:39.715Z,95680.84
2023-10-20T05:46:06.130Z,95667.84
2023-10-20T05:48:32.626Z,95667.84
2023-10-20T05:50:59.231Z,95657.59
2023-10-20T05:53:26.052Z,95662.31
2023-10-20T05:55:52.638Z,95645.34
2023-10-20T05:58:19.059Z,95628.00
2023-10-20T06:01:01.683Z,95629.97
2023-10-20T06:03:29.316Z,95630.00
2023-10-20T06:05:59.400Z,95634.72
2023-10-20T06:08:25.804Z,95626.47
2023-10-20T06:10:53.621Z,95628.06
2023-10-20T06:13:20.078Z,95623.72
2023-10-20T06:15:46.799Z,95608.31
2023-10-20T06:18:25.212Z,95604.75
2023-10-20T06:20:55.922Z,95597.69
2023-10-20T06:23:22.423Z,95588.22
2023-10-20T06:25:48.928Z,95577.19
2023-10-20T06:28:15.329Z,95576.75
2023-10-20T06:30:45.662Z,95572.44
2023-10-20T06:33:18.203Z,95561.00
2023-10-20T06:35:53.306Z,95562.19
2023-10-20T06:38:22.711Z,95554.72
2023-10-20T06:40:49.164Z,95559.84
2023-10-20T06:43:17.521Z,95558.66
2023-10-20T06:45:44.520Z,95551.56
2023-10-20T06:48:11.139Z,95536.19
2023-10-20T06:50:37.785Z,95546.44
2023-10-20T06:53:04.197Z,95559.47
2023-10-20T06:55:59.268Z,95570.13
2023-10-20T06:58:19.752Z,95567.72
2023-10-20T07:00:46.359Z,95556.69
2023-10-20T07:03:13.522Z,95545.66
2023-10-20T07:05:40.468Z,95532.69
2023-10-20T07:08:07.163Z,95529.13
2023-10-20T07:10:39.523Z,95533.09
2023-10-20T07:13:08.011Z,95537.81
2023-10-20T07:15:35.056Z,95535.06
2023-10-20T07:18:01.660Z,95528.75
2023-10-20T07:20:28.122Z,95522.84
2023-10-20T07:22:54.702Z,95527.56
2023-10-20T07:25:21.090Z,95521.25
2023-10-20T07:27:47.801Z,95505.09
2023-10-20T07:30:14.242Z,95503.53
2023-10-20T07:32:40.689Z,95510.25
2023-10-20T07:35:08.028Z,95502.38
2023-10-20T07:37:35.177Z,95508.66
2023-10-20T07:40:01.672Z,95494.09
2023-10-20T07:42:28.194Z,95497.63
2023-10-20T07:44:54.609Z,95498.03
2023-10-20T07:47:21.052Z,95487.44
2023-10-20T07:49:47.778Z,95484.25
2023-10-20T07:52:14.220Z,95483.50
2023-10-20T07:54:40.602Z,95483.50
2023-10-20T07:57:08.280Z,95473.25
2023-10-20T07:59:35.677Z,95483.09
2023-10-20T08:02:02.812Z,95479.16
2023-10-20T08:04:29.439Z,95476.81
2023-10-20T08:06:56.467Z,95477.59
2023-10-20T08:09:23.132Z,95474.81
2023-10-20T08:11:49.525Z,95470.50
2023-10-20T08:14:15.959Z,95472.84
2023-10-20T08:16:42.346Z,95477.59
2023-10-20T08:19:08.740Z,95473.63
2023-10-20T08:21:35.096Z,95463.38
2023-10-20T08:24:01.605Z,95470.50
2023-10-20T08:26:28.050Z,95456.31
2023-10-20T08:28:54.824Z,95466.16
2023-10-20T08:31:23.136Z,95479.56
2023-10-20T08:33:49.864Z,95478.41
2023-10-20T08:36:16.750Z,95479.56
2023-10-20T08:38:43.755Z,95486.25
2023-10-20T08:41:13.580Z,95485.09
2023-10-20T08:43:41.479Z,95488.25
2023-10-20T08:46:10.727Z,95487.44
2023-10-20T08:48:37.895Z,95496.53
2023-10-20T08:51:04.797Z,95496.13
2023-10-20T08:53:33.006Z,95493.34
2023-10-20T08:55:59.411Z,95492.16
2023-10-20T08:58:28.419Z,95489.03
2023-10-20T09:03:39.640Z,95478.41
2023-10-20T09:06:15.278Z,95478.78
2023-10-20T09:08:42.664Z,95479.19
2023-10-20T09:11:09.207Z,95472.09
2023-10-20T09:13:36.130Z,95472.84
2023-10-20T09:16:04.532Z,95469.72
2023-10-20T09:18:32.355Z,95469.31
2023-10-20T09:21:02.521Z,95459.88
2023-10-20T09:23:28.964Z,95463.03
2023-10-20T09:25:55.479Z,95474.44
2023-10-20T09:28:21.891Z,95470.50
2023-10-20T09:30:49.582Z,95472.47
2023-10-20T09:33:16.258Z,95480.38
2023-10-20T09:35:43.659Z,95470.13
2023-10-20T09:38:10.951Z,95460.66
2023-10-20T09:40:37.382Z,95454.34
2023-10-20T09:43:15.164Z,95447.66
2023-10-20T09:45:51.730Z,95442.53
2023-10-20T09:48:19.924Z,95444.13
2023-10-20T09:50:52.067Z,95441.75
2023-10-20T09:53:18.686Z,95430.72
2023-10-20T09:55:46.147Z,95437.81
2023-10-20T09:58:13.774Z,95429.97
2023-10-20T10:00:43.290Z,95444.94
2023-10-20T10:03:10.207Z,95446.91
2023-10-20T10:05:41.171Z,95447.69
2023-10-20T10:08:11.135Z,95447.72
2023-10-20T10:10:37.513Z,95429.97
2023-10-20T10:13:06.831Z,95432.31
2023-10-20T10:15:44.571Z,95423.28
2023-10-20T10:18:12.267Z,95429.59
2023-10-20T10:20:48.463Z,95435.09
2023-10-20T10:23:17.900Z,95442.19
2023-10-20T10:25:44.966Z,95447.31
2023-10-20T10:28:14.665Z,95452.00
2023-10-20T10:30:41.543Z,95458.34
2023-10-20T10:33:09.658Z,95444.91
2023-10-20T10:35:37.340Z,95438.97
2023-10-20T10:38:10.637Z,95438.59
2023-10-20T10:40:45.733Z,95436.63
2023-10-20T10:43:16.579Z,95440.97
2023-10-20T10:45:43.397Z,95447.66
2023-10-20T10:48:16.351Z,95443.31
2023-10-20T10:50:43.693Z,95432.34
2023-10-20T10:53:11.232Z,95436.63
2023-10-20T10:55:37.688Z,95427.16
2023-10-20T10:58:05.805Z,95425.19
2023-10-20T11:00:32.246Z,95418.06
2023-10-20T11:02:59.098Z,95416.09
2023-10-20T11:05:25.663Z,95401.91
2023-10-20T11:07:55.683Z,95387.34
2023-10-20T11:10:22.087Z,95390.50
2023-10-20T11:12:51.209Z,95389.72
2023-10-20T11:15:17.606Z,95379.47
2023-10-20T11:17:44.017Z,95374.34
2023-10-20T11:20:14.717Z,95385.78
2023-10-20T11:22:41.161Z,95373.94
2023-10-20T11:25:07.758Z,95369.94
2023-10-20T11:27:40.766Z,95362.06
2023-10-20T11:30:07.862Z,95354.16
2023-10-20T11:32:34.590Z,95342.72
2023-10-20T11:35:01.005Z,95328.50
2023-10-20T11:37:27.366Z,95323.41
2023-10-20T11:39:53.748Z,95308.84
2023-10-20T11:42:20.212Z,95302.16
2023-10-20T11:44:47.423Z,95300.16
2023-10-20T11:47:13.826Z,95300.56
2023-10-20T11:49:40.277Z,95291.91
2023-10-20T11:52:09.693Z,95281.63
2023-10-20T11:54:36.710Z,95283.25
2023-10-20T11:57:03.315Z,95289.53
2023-10-20T11:59:29.858Z,95285.56
2023-10-20T12:01:56.361Z,95286.75
2023-10-20T12:04:22.833Z,95295.00
2023-10-20T12:06:49.734Z,95289.88
2023-10-20T12:09:20.712Z,95278.47
2023-10-20T12:11:47.506Z,95278.47
2023-10-20T12:14:15.402Z,95266.16
2023-10-20T12:16:42.485Z,95257.16
2023-10-20T12:19:08.885Z,95244.13
2023-10-20T12:21:35.999Z,95233.50
2023-10-20T12:24:02.431Z,95231.91
2023-10-20T12:26:28.893Z,95231.44
2023-10-20T12:28:57.995Z,95217.66
2023-10-20T12:31:25.842Z,95221.69
2023-10-20T12:33:52.334Z,95218.56
2023-10-20T12:36:18.706Z,95219.31
2023-10-20T12:38:45.326Z,95205.88
2023-10-20T12:41:14.960Z,95209.88
2023-10-20T12:43:41.627Z,95237.84
2023-10-20T12:46:08.261Z,95242.56
2023-10-20T12:48:35.489Z,95237.47
2023-10-20T12:51:11.330Z,95232.34
2023-10-20T12:53:37.940Z,95232.75
2023-10-20T12:56:04.702Z,95237.81
2023-10-20T12:58:31.076Z,95238.63
2023-10-20T13:00:58.224Z,95231.13
2023-10-20T13:03:24.856Z,95237.81
2023-10-20T13:05:51.326Z,95237.03
2023-10-20T13:08:17.793Z,95249.25
2023-10-20T13:10:45.823Z,95241.00
2023-10-20T13:13:13.161Z,95237.06
2023-10-20T13:15:40.424Z,95216.22
2023-10-20T13:18:06.962Z,95230.00
2023-10-20T13:20:33.405Z,95229.25
2023-10-20T13:22:59.840Z,95237.56
2023-10-20T13:25:28.107Z,95244.28
2023-10-20T13:27:54.536Z,95254.59
2023-10-20T13:30:21.013Z,95263.66
2023-10-20T13:32:47.743Z,95264.44
2023-10-20T13:35:14.215Z,95282.97
2023-10-20T13:37:40.895Z,95302.63
2023-10-20T13:40:10.123Z,95321.13
2023-10-20T13:42:36.646Z,95301.84
2023-10-20T13:45:04.555Z,95308.47
2023-10-20T13:47:31.806Z,95315.59
2023-10-20T13:49:58.412Z,95315.16
2023-10-20T13:52:24.895Z,95315.94
2023-10-20T13:54:51.445Z,95303.75
2023-10-20T13:57:18.013Z,95294.63
2023-10-20T13:59:44.868Z,95282.81
2023-10-20T14:02:11.348Z,95276.88
2023-10-20T14:04:37.819Z,95254.78
2023-10-20T14:07:04.503Z,95260.75
2023-10-20T14:09:31.627Z,95256.44
2023-10-20T14:11:58.011Z,95249.41
2023-10-20T14:14:24.490Z,95244.72
2023-10-20T14:16:50.929Z,95253.03
2023-10-20T14:19:17.303Z,95260.13
2023-10-20T14:21:43.684Z,95266.38
2023-10-20T14:24:10.081Z,95285.31
2023-10-20T14:26:36.479Z,95297.53
2023-10-20T14:29:02.953Z,95310.91
2023-10-20T14:31:30.870Z,95299.09
2023-10-20T14:33:59.601Z,95287.28
2023-10-20T14:36:26.101Z,95275.47
2023-10-20T14:38:52.488Z,95284.53
2023-10-20T14:41:18.959Z,95278.22
2023-10-20T14:43:45.349Z,95269.16
2023-10-20T14:46:11.861Z,95264.41
2023-10-20T14:48:38.496Z,95278.59
2023-10-20T14:51:08.656Z,95282.06
2023-10-20T14:53:37.972Z,95289.91
2023-10-20T14:56:04.846Z,95284.38
2023-10-20T14:58:31.888Z,95286.72
2023-10-20T15:00:58.383Z,95287.91
2023-10-20T15:03:24.962Z,95282.72
2023-10-20T15:05:51.844Z,95284.34
2023-10-20T15:08:18.291Z,95279.94
2023-10-20T15:10:44.717Z,95278.34
2023-10-20T15:13:11.114Z,95286.22
2023-10-20T15:15:37.826Z,95287.78
2023-10-20T15:18:04.428Z,95291.28
2023-10-20T15:20:30.920Z,95281.38
2023-10-20T15:23:10.567Z,95268.72
2023-10-20T15:25:43.388Z,95262.03
2023-10-20T15:28:09.780Z,95258.03
2023-10-20T15:30:36.241Z,95274.16
2023-10-20T15:33:03.010Z,95269.34
2023-10-20T15:35:29.856Z,95263.06
2023-10-20T15:37:56.399Z,95265.72
2023-10-20T15:40:23.435Z,95269.69
2023-10-20T15:42:51.319Z,95277.88
2023-10-20T15:45:19.939Z,95273.59
2023-10-20T15:47:48.488Z,95267.19
2023-10-20T15:50:15.145Z,95258.88
2023-10-20T15:52:41.827Z,95248.19
2023-10-20T15:55:08.591Z,95262.78
2023-10-20T15:57:36.310Z,95270.28
2023-10-20T16:00:02.794Z,95278.50
2023-10-20T16:02:29.274Z,95280.84
2023-10-20T16:04:55.719Z,95284.78
2023-10-20T16:07:22.170Z,95297.78
2023-10-20T16:09:48.706Z,95296.97
2023-10-20T16:12:16.066Z,95294.59
2023-10-20T16:14:43.222Z,95304.06
2023-10-20T16:17:10.101Z,95295.81
2023-10-20T16:19:37.334Z,95300.84
2023-10-20T16:22:04.001Z,95308.00
2023-10-20T16:24:30.447Z,95308.00
2023-10-20T16:26:56.886Z,95304.00
2023-10-20T16:29:23.278Z,95311.50
2023-10-20T16:31:49.748Z,95319.41
2023-10-20T16:34:16.318Z,95321.00
2023-10-20T16:36:42.682Z,95331.63
2023-10-20T16:39:09.089Z,95345.84
2023-10-20T16:41:35.614Z,95340.66
2023-10-20T16:44:02.125Z,95329.56
2023-10-20T16:46:28.567Z,95333.53
2023-10-20T16:48:55.260Z,95339.06
2023-10-20T16:51:21.829Z,95332.03
2023-10-20T16:53:48.700Z,95340.69
2023-10-20T16:56:15.088Z,95334.34
2023-10-20T16:58:41.515Z,95342.22
2023-10-20T17:01:08.283Z,95348.13
2023-10-20T17:03:35.029Z,95365.53
2023-10-20T17:06:05.689Z,95363.56
2023-10-20T17:08:32.351Z,95360.41
2023-10-20T17:11:01.845Z,95367.09
2023-10-20T17:13:28.205Z,95354.84
2023-10-20T17:15:54.590Z,95369.81
2023-10-20T17:18:21.195Z,95365.88
2023-10-20T17:20:48.192Z,95371.38
2023-10-20T17:23:15.705Z,95380.06
2023-10-20T17:25:45.641Z,95379.66
2023-10-20T17:28:12.323Z,95387.91
2023-10-20T17:30:38.694Z,95381.53
2023-10-20T17:33:05.481Z,95386.75
2023-10-20T17:35:34.810Z,95394.56
2023-10-20T17:38:02.060Z,95400.47
2023-10-20T17:40:28.609Z,95402.88
2023-10-20T17:42:55.007Z,95408.41
2023-10-20T17:45:24.777Z,95404.03
2023-10-20T17:47:51.322Z,95409.56
2023-10-20T17:50:17.895Z,95413.88
2023-10-20T17:52:44.291Z,95422.13
2023-10-20T17:55:11.073Z,95425.28
2023-10-20T17:57:37.837Z,95421.69
2023-10-20T18:00:07.104Z,95420.53
2023-10-20T18:02:34.865Z,95408.25
2023-10-20T18:05:01.973Z,95423.19
2023-10-20T18:07:28.407Z,95417.56
2023-10-20T18:09:56.274Z,95411.69
2023-10-20T18:12:22.646Z,95420.81
2023-10-20T18:14:49.445Z,95430.28
2023-10-20T18:17:15.998Z,95432.97
2023-10-20T18:19:43.232Z,95427.88
2023-10-20T18:22:09.661Z,95425.50
2023-10-20T18:24:36.220Z,95425.09
2023-10-20T18:27:02.944Z,95427.88
2023-10-20T18:29:29.474Z,95423.06
2023-10-20T18:31:55.919Z,95430.59
2023-10-20T18:34:22.285Z,95447.66
2023-10-20T18:36:48.892Z,95445.22
2023-10-20T18:39:19.055Z,95445.22
2023-10-20T18:41:45.483Z,95451.50
2023-10-20T18:44:12.380Z,95460.94
2023-10-20T18:46:39.268Z,95471.69
2023-10-20T18:49:05.651Z,95464.94
2023-10-20T18:51:32.546Z,95466.47
2023-10-20T18:53:58.993Z,95466.06
2023-10-20T18:56:25.409Z,95467.63
2023-10-20T18:58:51.824Z,95462.06
2023-10-20T19:01:18.286Z,95474.44
2023-10-20T19:03:44.772Z,95477.59
2023-10-20T19:06:13.646Z,95475.81
2023-10-20T19:08:40.465Z,95494.03
2023-10-20T19:11:09.173Z,95482.59
2023-10-20T19:13:35.598Z,95494.13
2023-10-20T19:16:02.152Z,95499.22
2023-10-20T19:18:28.678Z,95507.56
2023-10-20T19:20:58.827Z,95501.72
2023-10-20T19:23:25.661Z,95512.81
2023-10-20T19:25:59.075Z,95511.66
2023-10-20T19:28:25.440Z,95516.31
2023-10-20T19:30:57.048Z,95510.00
2023-10-20T19:33:23.549Z,95526.25
2023-10-20T19:35:50.205Z,95529.41
2023-10-20T19:38:16.601Z,95536.13
2023-10-20T19:40:43.051Z,95535.56
2023-10-20T19:43:09.422Z,95551.00
2023-10-20T19:45:36.176Z,95553.75
2023-10-20T19:48:02.615Z,95556.88
2023-10-20T19:50:29.068Z,95561.91
2023-10-20T19:52:55.440Z,95560.50
2023-10-20T19:55:21.826Z,95570.16
2023-10-20T19:57:48.470Z,95582.00
2023-10-20T20:00:20.177Z,95586.66
2023-10-20T20:02:46.673Z,95590.66
2023-10-20T20:05:13.140Z,95598.50
2023-10-20T20:07:40.438Z,95602.78
2023-10-20T20:10:08.106Z,95599.53
2023-10-20T20:12:34.536Z,95594.44
2023-10-20T20:15:00.972Z,95596.41
2023-10-20T20:17:27.366Z,95607.84
2023-10-20T20:19:56.992Z,95607.47
2023-10-20T20:22:23.567Z,95605.97
2023-10-20T20:24:49.931Z,95609.47
2023-10-20T20:27:16.372Z,95615.06
2023-10-20T20:29:42.802Z,95625.34
2023-10-20T20:32:09.236Z,95623.53
2023-10-20T20:34:35.662Z,95624.03
2023-10-20T20:37:02.031Z,95618.25
2023-10-20T20:39:28.990Z,95620.25
2023-10-20T20:41:55.537Z,95624.53
2023-10-20T20:44:22.001Z,95625.59
2023-10-20T20:46:48.409Z,95644.53
2023-10-20T20:49:15.127Z,95646.44
2023-10-20T20:51:41.860Z,95648.84
2023-10-20T20:54:08.277Z,95656.75
2023-10-20T20:56:34.830Z,95665.38
2023-10-20T20:59:01.256Z,95673.16
2023-10-20T21:01:27.708Z,95675.00
2023-10-20T21:04:00.895Z,95676.94
2023-10-20T21:06:28.181Z,95682.06
2023-10-20T21:08:54.713Z,95683.19
2023-10-20T21:11:21.266Z,95691.81
2023-10-20T21:13:47.860Z,95697.63
2023-10-20T21:16:14.559Z,95694.69
2023-10-20T21:18:41.174Z,95694.66
2023-10-20T21:21:08.451Z,95703.09
2023-10-20T21:23:34.919Z,95703.75
2023-10-20T21:26:01.776Z,95707.28
2023-10-20T21:28:28.218Z,95704.16
2023-10-20T21:30:54.635Z,95718.28
2023-10-20T21:33:21.131Z,95721.06
2023-10-20T21:35:47.680Z,95720.69
2023-10-20T21:38:14.082Z,95721.59
2023-10-20T21:40:44.354Z,95721.59
2023-10-20T21:43:11.046Z,95722.50
2023-10-20T21:45:37.942Z,95708.75
2023-10-20T21:48:05.490Z,95719.09
2023-10-20T21:50:32.051Z,95724.19
2023-10-20T21:52:58.957Z,95728.72
2023-10-20T21:55:25.527Z,95733.44
2023-10-20T21:57:51.893Z,95736.09
2023-10-20T22:00:18.422Z,95740.31
2023-10-20T22:02:45.101Z,95743.38
2023-10-20T22:05:11.630Z,95743.28
2023-10-20T22:07:39.234Z,95745.69
2023-10-20T22:10:09.682Z,95762.72
2023-10-20T22:12:36.127Z,95756.34
2023-10-20T22:15:02.527Z,95748.75
2023-10-20T22:17:29.345Z,95756.72
2023-10-20T22:19:55.760Z,95753.19
2023-10-20T22:22:22.196Z,95754.41
2023-10-20T22:24:48.869Z,95749.31
2023-10-20T22:27:17.136Z,95754.88
2023-10-20T22:29:43.629Z,95750.50
2023-10-20T22:32:10.063Z,95752.50
2023-10-20T22:34:36.476Z,95751.25
2023-10-20T22:37:03.351Z,95753.66
2023-10-20T22:39:29.719Z,95754.44
2023-10-20T22:42:00.665Z,95756.19
2023-10-20T22:44:27.282Z,95756.06
2023-10-20T22:46:53.672Z,95759.28
2023-10-20T22:49:20.037Z,95763.16
2023-10-20T22:51:46.494Z,95766.28
2023-10-20T22:54:12.931Z,95758.00
2023-10-20T22:56:39.345Z,95769.13
2023-10-20T22:59:05.710Z,95762.00
2023-10-20T23:01:32.155Z,95756.75
2023-10-20T23:03:59.027Z,95761.84
2023-10-20T23:06:25.580Z,95762.94
2023-10-20T23:08:52.037Z,95753.31
2023-10-20T23:11:19.080Z,95750.56
2023-10-20T23:13:45.801Z,95747.81
2023-10-20T23:16:12.186Z,95745.03
2023-10-20T23:18:38.666Z,95746.22
2023-10-20T23:21:05.149Z,95745.13
2023-10-20T23:23:31.559Z,95752.66
2023-10-20T23:25:57.927Z,95740.47
2023-10-20T23:28:24.311Z,95745.97
2023-10-20T23:30:50.727Z,95750.88
2023-10-20T23:33:17.727Z,95754.97
2023-10-20T23:35:44.309Z,95741.41
2023-10-20T23:38:10.788Z,95758.84
2023-10-20T23:40:37.171Z,95753.81
2023-10-20T23:43:03.640Z,95759.25
2023-10-20T23:45:30.001Z,95761.47
2023-10-20T23:47:56.485Z,95764.56
2023-10-20T23:50:22.972Z,95767.59
2023-10-20T23:52:49.416Z,95777.88
2023-10-20T23:55:15.788Z,95781.06
2023-10-20T23:57:42.461Z,95788.88
